sensor_id;sensor_type;location;lat;lon;timestamp;P1;durP1;ratioP1;P2;durP2;ratioP2
70320;SDS011;61127;55.826;37.046;2022-12-24T00:00:49;9.68;;;5.25;;
70320;SDS011;61127;55.826;37.046;2022-12-24T00:03:19;8.00;;;4.53;;
70320;SDS011;61127;55.826;37.046;2022-12-24T00:05:44;9.80;;;5.40;;
70320;SDS011;61127;55.826;37.046;2022-12-24T00:08:10;8.70;;;4.97;;
70320;SDS011;61127;55.826;37.046;2022-12-24T00:10:36;9.77;;;5.40;;
70320;SDS011;61127;55.826;37.046;2022-12-24T00:13:01;10.02;;;5.85;;
70320;SDS011;61127;55.826;37.046;2022-12-24T00:15:27;8.73;;;4.90;;
70320;SDS011;61127;55.826;37.046;2022-12-24T00:17:52;9.23;;;5.17;;
70320;SDS011;61127;55.826;37.046;2022-12-24T00:20:18;9.97;;;5.17;;
70320;SDS011;61127;55.826;37.046;2022-12-24T00:22:43;10.20;;;5.40;;
70320;SDS011;61127;55.826;37.046;2022-12-24T00:25:10;9.77;;;5.13;;
70320;SDS011;61127;55.826;37.046;2022-12-24T00:27:36;10.40;;;5.80;;
70320;SDS011;61127;55.826;37.046;2022-12-24T00:30:01;10.83;;;5.77;;
70320;SDS011;61127;55.826;37.046;2022-12-24T00:32:29;10.98;;;5.47;;
70320;SDS011;61127;55.826;37.046;2022-12-24T00:34:56;10.77;;;5.67;;
70320;SDS011;61127;55.826;37.046;2022-12-24T00:37:21;12.00;;;6.22;;
70320;SDS011;61127;55.826;37.046;2022-12-24T00:39:47;11.73;;;6.03;;
70320;SDS011;61127;55.826;37.046;2022-12-24T00:42:12;11.73;;;6.22;;
70320;SDS011;61127;55.826;37.046;2022-12-24T00:44:38;10.52;;;5.75;;
70320;SDS011;61127;55.826;37.046;2022-12-24T00:47:03;11.90;;;6.37;;
70320;SDS011;61127;55.826;37.046;2022-12-24T00:49:29;12.87;;;6.43;;
70320;SDS011;61127;55.826;37.046;2022-12-24T00:51:54;11.50;;;6.05;;
70320;SDS011;61127;55.826;37.046;2022-12-24T00:54:21;11.70;;;5.73;;
70320;SDS011;61127;55.826;37.046;2022-12-24T00:56:46;12.30;;;6.45;;
70320;SDS011;61127;55.826;37.046;2022-12-24T00:59:12;13.57;;;6.93;;
70320;SDS011;61127;55.826;37.046;2022-12-24T01:01:37;11.68;;;5.93;;
70320;SDS011;61127;55.826;37.046;2022-12-24T01:04:03;15.50;;;7.30;;
70320;SDS011;61127;55.826;37.046;2022-12-24T01:06:47;12.15;;;6.10;;
70320;SDS011;61127;55.826;37.046;2022-12-24T01:09:13;14.37;;;6.90;;
70320;SDS011;61127;55.826;37.046;2022-12-24T01:11:38;13.02;;;6.53;;
70320;SDS011;61127;55.826;37.046;2022-12-24T01:14:04;12.57;;;6.57;;
70320;SDS011;61127;55.826;37.046;2022-12-24T01:16:30;14.83;;;7.03;;
70320;SDS011;61127;55.826;37.046;2022-12-24T01:18:55;14.27;;;8.20;;
70320;SDS011;61127;55.826;37.046;2022-12-24T01:21:21;16.27;;;7.33;;
70320;SDS011;61127;55.826;37.046;2022-12-24T01:23:46;16.70;;;8.05;;
70320;SDS011;61127;55.826;37.046;2022-12-24T01:26:13;17.23;;;7.87;;
70320;SDS011;61127;55.826;37.046;2022-12-24T01:28:39;15.50;;;7.50;;
70320;SDS011;61127;55.826;37.046;2022-12-24T01:31:17;16.05;;;7.35;;
70320;SDS011;61127;55.826;37.046;2022-12-24T01:33:43;15.10;;;7.88;;
70320;SDS011;61127;55.826;37.046;2022-12-24T01:36:11;15.60;;;8.10;;
70320;SDS011;61127;55.826;37.046;2022-12-24T01:38:36;14.40;;;7.15;;
70320;SDS011;61127;55.826;37.046;2022-12-24T01:41:21;15.05;;;7.45;;
70320;SDS011;61127;55.826;37.046;2022-12-24T01:47:11;15.50;;;7.30;;
70320;SDS011;61127;55.826;37.046;2022-12-24T01:49:41;16.88;;;8.00;;
70320;SDS011;61127;55.826;37.046;2022-12-24T01:52:11;16.27;;;7.72;;
70320;SDS011;61127;55.826;37.046;2022-12-24T01:54:40;16.88;;;8.25;;
70320;SDS011;61127;55.826;37.046;2022-12-24T01:57:09;16.23;;;7.57;;
70320;SDS011;61127;55.826;37.046;2022-12-24T01:59:35;18.45;;;7.93;;
70320;SDS011;61127;55.826;37.046;2022-12-24T02:02:01;18.52;;;8.52;;
70320;SDS011;61127;55.826;37.046;2022-12-24T02:04:39;16.27;;;7.90;;
70320;SDS011;61127;55.826;37.046;2022-12-24T02:07:05;17.13;;;8.20;;
70320;SDS011;61127;55.826;37.046;2022-12-24T02:09:31;16.95;;;7.82;;
70320;SDS011;61127;55.826;37.046;2022-12-24T02:11:57;17.83;;;8.05;;
70320;SDS011;61127;55.826;37.046;2022-12-24T02:14:24;19.17;;;8.30;;
70320;SDS011;61127;55.826;37.046;2022-12-24T02:19:35;20.63;;;8.50;;
70320;SDS011;61127;55.826;37.046;2022-12-24T02:27:53;21.13;;;9.03;;
70320;SDS011;61127;55.826;37.046;2022-12-24T02:30:10;18.08;;;8.30;;
70320;SDS011;61127;55.826;37.046;2022-12-24T02:32:43;22.08;;;9.60;;
70320;SDS011;61127;55.826;37.046;2022-12-24T02:35:11;22.63;;;9.30;;
70320;SDS011;61127;55.826;37.046;2022-12-24T02:37:55;26.17;;;9.88;;
70320;SDS011;61127;55.826;37.046;2022-12-24T02:40:24;24.90;;;11.43;;
70320;SDS011;61127;55.826;37.046;2022-12-24T02:42:54;23.20;;;9.38;;
70320;SDS011;61127;55.826;37.046;2022-12-24T02:45:25;21.17;;;9.38;;
70320;SDS011;61127;55.826;37.046;2022-12-24T02:47:52;22.63;;;9.82;;
70320;SDS011;61127;55.826;37.046;2022-12-24T02:50:19;21.65;;;9.13;;
70320;SDS011;61127;55.826;37.046;2022-12-24T02:52:45;21.87;;;9.63;;
70320;SDS011;61127;55.826;37.046;2022-12-24T02:55:20;23.58;;;9.63;;
70320;SDS011;61127;55.826;37.046;2022-12-24T03:00:14;23.47;;;9.03;;
70320;SDS011;61127;55.826;37.046;2022-12-24T03:11:05;24.45;;;10.00;;
70320;SDS011;61127;55.826;37.046;2022-12-24T03:13:32;24.58;;;9.55;;
70320;SDS011;61127;55.826;37.046;2022-12-24T03:15:59;23.17;;;9.30;;
70320;SDS011;61127;55.826;37.046;2022-12-24T03:18:27;26.38;;;10.32;;
70320;SDS011;61127;55.826;37.046;2022-12-24T03:23:19;24.07;;;10.27;;
70320;SDS011;61127;55.826;37.046;2022-12-24T03:25:46;24.25;;;10.23;;
70320;SDS011;61127;55.826;37.046;2022-12-24T03:28:12;25.03;;;9.87;;
70320;SDS011;61127;55.826;37.046;2022-12-24T03:30:39;23.67;;;10.15;;
70320;SDS011;61127;55.826;37.046;2022-12-24T03:33:05;24.42;;;9.38;;
70320;SDS011;61127;55.826;37.046;2022-12-24T03:35:31;23.27;;;10.00;;
70320;SDS011;61127;55.826;37.046;2022-12-24T03:37:57;23.30;;;10.70;;
70320;SDS011;61127;55.826;37.046;2022-12-24T03:40:22;22.60;;;10.23;;
70320;SDS011;61127;55.826;37.046;2022-12-24T03:42:48;23.63;;;10.10;;
70320;SDS011;61127;55.826;37.046;2022-12-24T03:45:15;24.43;;;10.47;;
70320;SDS011;61127;55.826;37.046;2022-12-24T03:47:41;22.73;;;10.60;;
70320;SDS011;61127;55.826;37.046;2022-12-24T03:50:07;23.30;;;10.55;;
70320;SDS011;61127;55.826;37.046;2022-12-24T03:52:32;21.10;;;9.30;;
70320;SDS011;61127;55.826;37.046;2022-12-24T03:54:59;24.33;;;10.93;;
70320;SDS011;61127;55.826;37.046;2022-12-24T03:57:25;23.57;;;10.03;;
70320;SDS011;61127;55.826;37.046;2022-12-24T03:59:50;20.00;;;9.13;;
70320;SDS011;61127;55.826;37.046;2022-12-24T04:02:16;22.13;;;10.13;;
70320;SDS011;61127;55.826;37.046;2022-12-24T04:04:41;24.00;;;9.93;;
70320;SDS011;61127;55.826;37.046;2022-12-24T04:07:07;26.10;;;10.77;;
70320;SDS011;61127;55.826;37.046;2022-12-24T04:09:32;20.83;;;9.77;;
70320;SDS011;61127;55.826;37.046;2022-12-24T04:11:58;23.77;;;10.55;;
70320;SDS011;61127;55.826;37.046;2022-12-24T04:14:24;22.10;;;10.33;;
70320;SDS011;61127;55.826;37.046;2022-12-24T04:16:49;24.17;;;10.10;;
70320;SDS011;61127;55.826;37.046;2022-12-24T04:19:15;21.08;;;9.05;;
70320;SDS011;61127;55.826;37.046;2022-12-24T04:21:40;24.23;;;10.57;;
70320;SDS011;61127;55.826;37.046;2022-12-24T04:24:06;21.03;;;9.30;;
70320;SDS011;61127;55.826;37.046;2022-12-24T04:26:35;21.67;;;10.20;;
70320;SDS011;61127;55.826;37.046;2022-12-24T04:29:00;22.10;;;9.87;;
70320;SDS011;61127;55.826;37.046;2022-12-24T04:31:44;23.10;;;9.90;;
70320;SDS011;61127;55.826;37.046;2022-12-24T04:34:09;23.97;;;10.43;;
70320;SDS011;61127;55.826;37.046;2022-12-24T04:36:37;20.98;;;9.88;;
70320;SDS011;61127;55.826;37.046;2022-12-24T04:39:03;20.80;;;9.60;;
70320;SDS011;61127;55.826;37.046;2022-12-24T04:41:28;20.63;;;10.30;;
70320;SDS011;61127;55.826;37.046;2022-12-24T04:43:54;24.50;;;11.43;;
70320;SDS011;61127;55.826;37.046;2022-12-24T04:46:24;22.60;;;10.07;;
70320;SDS011;61127;55.826;37.046;2022-12-24T04:48:50;23.55;;;10.82;;
70320;SDS011;61127;55.826;37.046;2022-12-24T04:51:16;24.80;;;10.27;;
70320;SDS011;61127;55.826;37.046;2022-12-24T04:53:42;29.27;;;11.32;;
70320;SDS011;61127;55.826;37.046;2022-12-24T04:56:12;24.65;;;10.50;;
70320;SDS011;61127;55.826;37.046;2022-12-24T04:58:38;25.37;;;11.53;;
70320;SDS011;61127;55.826;37.046;2022-12-24T05:01:04;22.38;;;10.52;;
70320;SDS011;61127;55.826;37.046;2022-12-24T05:03:30;26.00;;;11.17;;
70320;SDS011;61127;55.826;37.046;2022-12-24T05:06:03;24.95;;;11.48;;
70320;SDS011;61127;55.826;37.046;2022-12-24T05:08:29;26.77;;;12.65;;
70320;SDS011;61127;55.826;37.046;2022-12-24T05:10:58;26.33;;;10.77;;
70320;SDS011;61127;55.826;37.046;2022-12-24T05:13:24;24.73;;;10.73;;
70320;SDS011;61127;55.826;37.046;2022-12-24T05:15:50;24.63;;;10.43;;
70320;SDS011;61127;55.826;37.046;2022-12-24T05:18:16;25.20;;;10.57;;
70320;SDS011;61127;55.826;37.046;2022-12-24T05:20:42;23.23;;;10.75;;
70320;SDS011;61127;55.826;37.046;2022-12-24T05:23:08;26.80;;;11.37;;
70320;SDS011;61127;55.826;37.046;2022-12-24T05:25:53;21.52;;;10.15;;
70320;SDS011;61127;55.826;37.046;2022-12-24T05:28:38;22.83;;;10.97;;
70320;SDS011;61127;55.826;37.046;2022-12-24T05:31:03;22.67;;;10.50;;
70320;SDS011;61127;55.826;37.046;2022-12-24T05:33:29;26.60;;;10.20;;
70320;SDS011;61127;55.826;37.046;2022-12-24T05:35:56;24.08;;;10.23;;
70320;SDS011;61127;55.826;37.046;2022-12-24T05:38:21;23.25;;;10.68;;
70320;SDS011;61127;55.826;37.046;2022-12-24T05:40:47;25.73;;;10.30;;
70320;SDS011;61127;55.826;37.046;2022-12-24T05:43:12;24.50;;;10.30;;
70320;SDS011;61127;55.826;37.046;2022-12-24T05:45:39;24.20;;;10.30;;
70320;SDS011;61127;55.826;37.046;2022-12-24T05:48:04;23.50;;;10.55;;
70320;SDS011;61127;55.826;37.046;2022-12-24T05:50:32;23.25;;;10.32;;
70320;SDS011;61127;55.826;37.046;2022-12-24T05:53:03;24.15;;;11.10;;
70320;SDS011;61127;55.826;37.046;2022-12-24T05:55:30;27.03;;;10.90;;
70320;SDS011;61127;55.826;37.046;2022-12-24T05:57:56;22.58;;;11.00;;
70320;SDS011;61127;55.826;37.046;2022-12-24T06:00:21;25.83;;;11.30;;
70320;SDS011;61127;55.826;37.046;2022-12-24T06:02:47;24.05;;;10.43;;
70320;SDS011;61127;55.826;37.046;2022-12-24T06:05:12;22.07;;;10.77;;
70320;SDS011;61127;55.826;37.046;2022-12-24T06:07:39;24.87;;;11.20;;
70320;SDS011;61127;55.826;37.046;2022-12-24T06:10:05;23.50;;;11.05;;
70320;SDS011;61127;55.826;37.046;2022-12-24T06:12:30;27.20;;;11.70;;
70320;SDS011;61127;55.826;37.046;2022-12-24T06:14:58;28.17;;;11.47;;
70320;SDS011;61127;55.826;37.046;2022-12-24T06:17:23;23.95;;;11.52;;
70320;SDS011;61127;55.826;37.046;2022-12-24T06:19:49;24.30;;;10.77;;
70320;SDS011;61127;55.826;37.046;2022-12-24T06:22:15;23.92;;;9.90;;
70320;SDS011;61127;55.826;37.046;2022-12-24T06:24:41;25.20;;;11.37;;
70320;SDS011;61127;55.826;37.046;2022-12-24T06:27:07;24.50;;;11.23;;
70320;SDS011;61127;55.826;37.046;2022-12-24T06:29:32;23.77;;;10.67;;
70320;SDS011;61127;55.826;37.046;2022-12-24T06:31:58;26.50;;;11.70;;
70320;SDS011;61127;55.826;37.046;2022-12-24T06:34:23;24.07;;;10.63;;
70320;SDS011;61127;55.826;37.046;2022-12-24T06:36:49;26.77;;;11.00;;
70320;SDS011;61127;55.826;37.046;2022-12-24T06:39:15;24.77;;;11.27;;
70320;SDS011;61127;55.826;37.046;2022-12-24T06:41:40;23.47;;;11.10;;
70320;SDS011;61127;55.826;37.046;2022-12-24T06:44:06;26.20;;;11.13;;
70320;SDS011;61127;55.826;37.046;2022-12-24T06:46:31;25.90;;;11.25;;
70320;SDS011;61127;55.826;37.046;2022-12-24T06:48:57;29.20;;;11.43;;
70320;SDS011;61127;55.826;37.046;2022-12-24T06:51:22;22.83;;;10.70;;
70320;SDS011;61127;55.826;37.046;2022-12-24T06:53:48;22.02;;;10.07;;
70320;SDS011;61127;55.826;37.046;2022-12-24T06:56:32;20.02;;;10.50;;
70320;SDS011;61127;55.826;37.046;2022-12-24T06:58:58;25.17;;;10.20;;
70320;SDS011;61127;55.826;37.046;2022-12-24T07:01:24;20.40;;;9.40;;
70320;SDS011;61127;55.826;37.046;2022-12-24T07:03:49;19.00;;;8.40;;
70320;SDS011;61127;55.826;37.046;2022-12-24T07:06:33;18.50;;;9.20;;
70320;SDS011;61127;55.826;37.046;2022-12-24T07:08:59;20.60;;;9.60;;
70320;SDS011;61127;55.826;37.046;2022-12-24T07:11:25;19.65;;;8.45;;
70320;SDS011;61127;55.826;37.046;2022-12-24T07:13:50;18.25;;;8.50;;
70320;SDS011;61127;55.826;37.046;2022-12-24T07:16:18;20.50;;;9.10;;
70320;SDS011;61127;55.826;37.046;2022-12-24T07:18:43;17.83;;;8.87;;
70320;SDS011;61127;55.826;37.046;2022-12-24T07:21:09;17.63;;;8.55;;
70320;SDS011;61127;55.826;37.046;2022-12-24T07:23:35;18.10;;;8.23;;
70320;SDS011;61127;55.826;37.046;2022-12-24T07:28:31;16.90;;;8.40;;
70320;SDS011;61127;55.826;37.046;2022-12-24T07:30:57;15.37;;;8.00;;
70320;SDS011;61127;55.826;37.046;2022-12-24T07:33:23;13.73;;;7.60;;
70320;SDS011;61127;55.826;37.046;2022-12-24T07:35:58;15.33;;;7.87;;
70320;SDS011;61127;55.826;37.046;2022-12-24T07:38:26;14.45;;;7.22;;
70320;SDS011;61127;55.826;37.046;2022-12-24T07:40:52;13.50;;;6.95;;
70320;SDS011;61127;55.826;37.046;2022-12-24T07:43:18;12.47;;;6.60;;
70320;SDS011;61127;55.826;37.046;2022-12-24T07:45:44;12.02;;;6.25;;
70320;SDS011;61127;55.826;37.046;2022-12-24T07:48:10;13.20;;;6.70;;
70320;SDS011;61127;55.826;37.046;2022-12-24T07:50:35;16.13;;;6.88;;
70320;SDS011;61127;55.826;37.046;2022-12-24T07:53:01;13.47;;;6.90;;
70320;SDS011;61127;55.826;37.046;2022-12-24T07:57:55;13.50;;;6.13;;
70320;SDS011;61127;55.826;37.046;2022-12-24T08:00:20;12.70;;;6.13;;
70320;SDS011;61127;55.826;37.046;2022-12-24T08:02:46;11.57;;;5.87;;
70320;SDS011;61127;55.826;37.046;2022-12-24T08:05:13;12.83;;;6.20;;
70320;SDS011;61127;55.826;37.046;2022-12-24T08:07:38;15.40;;;6.47;;
70320;SDS011;61127;55.826;37.046;2022-12-24T08:10:04;11.43;;;6.17;;
70320;SDS011;61127;55.826;37.046;2022-12-24T08:12:30;11.68;;;6.50;;
70320;SDS011;61127;55.826;37.046;2022-12-24T08:14:57;11.32;;;6.15;;
70320;SDS011;61127;55.826;37.046;2022-12-24T08:17:42;12.05;;;6.30;;
70320;SDS011;61127;55.826;37.046;2022-12-24T08:20:08;13.97;;;6.50;;
70320;SDS011;61127;55.826;37.046;2022-12-24T08:22:34;10.18;;;5.90;;
70320;SDS011;61127;55.826;37.046;2022-12-24T08:24:59;11.43;;;5.50;;
70320;SDS011;61127;55.826;37.046;2022-12-24T08:27:26;11.45;;;5.50;;
70320;SDS011;61127;55.826;37.046;2022-12-24T08:29:51;11.50;;;5.87;;
70320;SDS011;61127;55.826;37.046;2022-12-24T08:32:17;11.35;;;5.43;;
70320;SDS011;61127;55.826;37.046;2022-12-24T08:34:43;11.40;;;4.97;;
70320;SDS011;61127;55.826;37.046;2022-12-24T08:37:08;10.75;;;5.22;;
70320;SDS011;61127;55.826;37.046;2022-12-24T08:39:34;10.00;;;5.47;;
70320;SDS011;61127;55.826;37.046;2022-12-24T08:42:02;12.43;;;5.80;;
70320;SDS011;61127;55.826;37.046;2022-12-24T08:44:28;9.90;;;5.00;;
70320;SDS011;61127;55.826;37.046;2022-12-24T08:46:54;10.88;;;5.10;;
70320;SDS011;61127;55.826;37.046;2022-12-24T08:49:20;9.77;;;5.13;;
70320;SDS011;61127;55.826;37.046;2022-12-24T08:51:45;12.27;;;5.53;;
70320;SDS011;61127;55.826;37.046;2022-12-24T08:54:11;9.60;;;5.20;;
70320;SDS011;61127;55.826;37.046;2022-12-24T08:56:38;10.77;;;5.10;;
70320;SDS011;61127;55.826;37.046;2022-12-24T08:59:04;11.20;;;5.55;;
70320;SDS011;61127;55.826;37.046;2022-12-24T09:01:29;10.25;;;4.85;;
70320;SDS011;61127;55.826;37.046;2022-12-24T09:03:56;11.10;;;5.07;;
70320;SDS011;61127;55.826;37.046;2022-12-24T09:06:21;9.57;;;5.10;;
70320;SDS011;61127;55.826;37.046;2022-12-24T09:08:47;9.60;;;5.37;;
70320;SDS011;61127;55.826;37.046;2022-12-24T09:11:14;9.20;;;5.60;;
70320;SDS011;61127;55.826;37.046;2022-12-24T09:13:40;13.52;;;5.00;;
70320;SDS011;61127;55.826;37.046;2022-12-24T09:16:06;9.37;;;5.00;;
70320;SDS011;61127;55.826;37.046;2022-12-24T09:18:32;9.65;;;5.35;;
70320;SDS011;61127;55.826;37.046;2022-12-24T09:21:01;10.38;;;4.68;;
70320;SDS011;61127;55.826;37.046;2022-12-24T09:23:28;10.33;;;5.07;;
70320;SDS011;61127;55.826;37.046;2022-12-24T09:25:54;10.38;;;4.80;;
70320;SDS011;61127;55.826;37.046;2022-12-24T09:28:19;11.83;;;4.73;;
70320;SDS011;61127;55.826;37.046;2022-12-24T09:30:53;9.18;;;4.90;;
70320;SDS011;61127;55.826;37.046;2022-12-24T09:33:18;9.07;;;4.40;;
70320;SDS011;61127;55.826;37.046;2022-12-24T09:35:44;9.48;;;4.72;;
70320;SDS011;61127;55.826;37.046;2022-12-24T09:38:09;9.77;;;4.83;;
70320;SDS011;61127;55.826;37.046;2022-12-24T09:40:36;10.10;;;4.70;;
70320;SDS011;61127;55.826;37.046;2022-12-24T09:43:11;10.43;;;5.00;;
70320;SDS011;61127;55.826;37.046;2022-12-24T09:48:16;11.02;;;5.07;;
70320;SDS011;61127;55.826;37.046;2022-12-24T09:50:49;11.15;;;5.32;;
70320;SDS011;61127;55.826;37.046;2022-12-24T09:55:52;10.30;;;4.95;;
70320;SDS011;61127;55.826;37.046;2022-12-24T09:58:21;9.73;;;4.90;;
70320;SDS011;61127;55.826;37.046;2022-12-24T10:00:48;9.30;;;4.47;;
70320;SDS011;61127;55.826;37.046;2022-12-24T10:03:16;9.18;;;4.63;;
70320;SDS011;61127;55.826;37.046;2022-12-24T10:05:45;9.50;;;4.75;;
70320;SDS011;61127;55.826;37.046;2022-12-24T10:08:25;9.85;;;4.20;;
70320;SDS011;61127;55.826;37.046;2022-12-24T10:10:53;8.87;;;4.53;;
70320;SDS011;61127;55.826;37.046;2022-12-24T10:18:45;6.75;;;3.78;;
70320;SDS011;61127;55.826;37.046;2022-12-24T10:21:14;8.23;;;4.50;;
70320;SDS011;61127;55.826;37.046;2022-12-24T10:23:48;9.00;;;3.53;;
70320;SDS011;61127;55.826;37.046;2022-12-24T10:26:24;7.20;;;3.67;;
70320;SDS011;61127;55.826;37.046;2022-12-24T10:28:52;5.82;;;2.90;;
70320;SDS011;61127;55.826;37.046;2022-12-24T10:31:18;6.53;;;3.45;;
70320;SDS011;61127;55.826;37.046;2022-12-24T10:33:46;7.57;;;3.35;;
70320;SDS011;61127;55.826;37.046;2022-12-24T10:36:17;7.10;;;3.40;;
70320;SDS011;61127;55.826;37.046;2022-12-24T10:38:43;4.70;;;2.85;;
70320;SDS011;61127;55.826;37.046;2022-12-24T10:41:09;6.88;;;3.10;;
70320;SDS011;61127;55.826;37.046;2022-12-24T10:43:35;6.13;;;2.97;;
70320;SDS011;61127;55.826;37.046;2022-12-24T10:46:15;7.30;;;3.00;;
70320;SDS011;61127;55.826;37.046;2022-12-24T10:48:44;5.93;;;3.10;;
70320;SDS011;61127;55.826;37.046;2022-12-24T10:51:12;7.13;;;3.05;;
70320;SDS011;61127;55.826;37.046;2022-12-24T10:53:44;5.55;;;3.10;;
70320;SDS011;61127;55.826;37.046;2022-12-24T10:56:12;7.93;;;2.97;;
70320;SDS011;61127;55.826;37.046;2022-12-24T10:58:42;5.80;;;3.33;;
70320;SDS011;61127;55.826;37.046;2022-12-24T11:01:08;5.87;;;3.03;;
70320;SDS011;61127;55.826;37.046;2022-12-24T11:03:34;8.02;;;4.05;;
70320;SDS011;61127;55.826;37.046;2022-12-24T11:08:49;8.47;;;3.97;;
70320;SDS011;61127;55.826;37.046;2022-12-24T11:11:15;8.02;;;4.10;;
70320;SDS011;61127;55.826;37.046;2022-12-24T11:13:45;7.53;;;4.03;;
70320;SDS011;61127;55.826;37.046;2022-12-24T11:16:27;7.70;;;4.15;;
70320;SDS011;61127;55.826;37.046;2022-12-24T11:18:57;7.65;;;4.53;;
70320;SDS011;61127;55.826;37.046;2022-12-24T11:21:30;9.82;;;4.07;;
70320;SDS011;61127;55.826;37.046;2022-12-24T11:24:42;7.05;;;3.78;;
70320;SDS011;61127;55.826;37.046;2022-12-24T11:26:43;7.20;;;4.13;;
70320;SDS011;61127;55.826;37.046;2022-12-24T11:31:38;10.02;;;4.05;;
70320;SDS011;61127;55.826;37.046;2022-12-24T11:37:20;7.57;;;3.90;;
70320;SDS011;61127;55.826;37.046;2022-12-24T11:39:50;7.57;;;3.83;;
70320;SDS011;61127;55.826;37.046;2022-12-24T11:42:21;7.55;;;3.35;;
70320;SDS011;61127;55.826;37.046;2022-12-24T11:44:49;6.50;;;3.40;;
70320;SDS011;61127;55.826;37.046;2022-12-24T11:47:14;6.15;;;3.20;;
70320;SDS011;61127;55.826;37.046;2022-12-24T11:49:40;7.10;;;3.45;;
70320;SDS011;61127;55.826;37.046;2022-12-24T11:54:42;6.38;;;3.20;;
70320;SDS011;61127;55.826;37.046;2022-12-24T11:57:10;7.63;;;3.90;;
70320;SDS011;61127;55.826;37.046;2022-12-24T11:59:39;6.22;;;3.38;;
70320;SDS011;61127;55.826;37.046;2022-12-24T12:04:39;7.88;;;3.30;;
70320;SDS011;61127;55.826;37.046;2022-12-24T12:07:12;6.03;;;3.20;;
70320;SDS011;61127;55.826;37.046;2022-12-24T12:09:44;5.83;;;3.40;;
70320;SDS011;61127;55.826;37.046;2022-12-24T12:12:30;6.05;;;3.30;;
70320;SDS011;61127;55.826;37.046;2022-12-24T12:15:11;6.32;;;3.25;;
70320;SDS011;61127;55.826;37.046;2022-12-24T12:20:10;7.10;;;3.30;;
70320;SDS011;61127;55.826;37.046;2022-12-24T12:25:02;6.60;;;3.45;;
70320;SDS011;61127;55.826;37.046;2022-12-24T12:27:31;5.70;;;3.37;;
70320;SDS011;61127;55.826;37.046;2022-12-24T12:30:02;7.40;;;3.80;;
70320;SDS011;61127;55.826;37.046;2022-12-24T12:32:44;7.03;;;3.60;;
70320;SDS011;61127;55.826;37.046;2022-12-24T12:37:56;8.73;;;4.60;;
70320;SDS011;61127;55.826;37.046;2022-12-24T12:40:25;10.47;;;5.43;;
70320;SDS011;61127;55.826;37.046;2022-12-24T12:43:01;11.32;;;6.75;;
70320;SDS011;61127;55.826;37.046;2022-12-24T12:48:19;10.60;;;5.13;;
70320;SDS011;61127;55.826;37.046;2022-12-24T12:51:04;8.15;;;4.78;;
70320;SDS011;61127;55.826;37.046;2022-12-24T12:53:36;8.13;;;4.40;;
70320;SDS011;61127;55.826;37.046;2022-12-24T13:01:40;11.13;;;4.18;;
70320;SDS011;61127;55.826;37.046;2022-12-24T13:10:01;7.63;;;4.07;;
70320;SDS011;61127;55.826;37.046;2022-12-24T13:22:34;11.15;;;3.90;;
70320;SDS011;61127;55.826;37.046;2022-12-24T13:24:59;7.70;;;3.70;;
70320;SDS011;61127;55.826;37.046;2022-12-24T13:27:27;8.65;;;4.03;;
70320;SDS011;61127;55.826;37.046;2022-12-24T13:29:57;5.73;;;3.33;;
70320;SDS011;61127;55.826;37.046;2022-12-24T13:37:49;6.57;;;3.73;;
70320;SDS011;61127;55.826;37.046;2022-12-24T13:47:55;6.45;;;3.80;;
70320;SDS011;61127;55.826;37.046;2022-12-24T13:50:21;7.78;;;3.40;;
70320;SDS011;61127;55.826;37.046;2022-12-24T13:52:51;10.23;;;3.95;;
70320;SDS011;61127;55.826;37.046;2022-12-24T13:55:17;9.77;;;3.50;;
70320;SDS011;61127;55.826;37.046;2022-12-24T13:57:51;7.63;;;3.50;;
70320;SDS011;61127;55.826;37.046;2022-12-24T14:05:17;6.25;;;3.25;;
70320;SDS011;61127;55.826;37.046;2022-12-24T14:07:44;6.28;;;3.05;;
70320;SDS011;61127;55.826;37.046;2022-12-24T14:12:56;6.70;;;3.50;;
70320;SDS011;61127;55.826;37.046;2022-12-24T14:18:06;5.93;;;3.08;;
70320;SDS011;61127;55.826;37.046;2022-12-24T14:20:32;5.63;;;3.17;;
70320;SDS011;61127;55.826;37.046;2022-12-24T14:22:57;5.95;;;3.17;;
70320;SDS011;61127;55.826;37.046;2022-12-24T14:25:23;5.57;;;3.28;;
70320;SDS011;61127;55.826;37.046;2022-12-24T14:28:02;6.13;;;3.43;;
70320;SDS011;61127;55.826;37.046;2022-12-24T14:30:28;7.22;;;3.40;;
70320;SDS011;61127;55.826;37.046;2022-12-24T14:32:54;6.28;;;3.60;;
70320;SDS011;61127;55.826;37.046;2022-12-24T14:35:33;6.97;;;3.70;;
70320;SDS011;61127;55.826;37.046;2022-12-24T14:38:12;10.20;;;3.53;;
70320;SDS011;61127;55.826;37.046;2022-12-24T14:40:48;7.78;;;3.50;;
70320;SDS011;61127;55.826;37.046;2022-12-24T14:49:21;6.05;;;3.70;;
70320;SDS011;61127;55.826;37.046;2022-12-24T14:54:33;7.45;;;3.78;;
70320;SDS011;61127;55.826;37.046;2022-12-24T14:59:55;6.05;;;3.45;;
70320;SDS011;61127;55.826;37.046;2022-12-24T15:02:35;6.20;;;3.40;;
70320;SDS011;61127;55.826;37.046;2022-12-24T15:07:30;6.50;;;3.47;;
70320;SDS011;61127;55.826;37.046;2022-12-24T15:09:57;6.65;;;3.60;;
70320;SDS011;61127;55.826;37.046;2022-12-24T15:12:23;8.07;;;3.70;;
70320;SDS011;61127;55.826;37.046;2022-12-24T15:14:50;6.70;;;3.90;;
70320;SDS011;61127;55.826;37.046;2022-12-24T15:17:16;6.55;;;3.38;;
70320;SDS011;61127;55.826;37.046;2022-12-24T15:19:42;7.03;;;3.67;;
70320;SDS011;61127;55.826;37.046;2022-12-24T15:24:52;6.55;;;3.92;;
70320;SDS011;61127;55.826;37.046;2022-12-24T15:27:21;7.55;;;3.90;;
70320;SDS011;61127;55.826;37.046;2022-12-24T15:29:48;7.50;;;3.87;;
70320;SDS011;61127;55.826;37.046;2022-12-24T15:32:15;6.93;;;3.90;;
70320;SDS011;61127;55.826;37.046;2022-12-24T15:34:42;7.15;;;4.10;;
70320;SDS011;61127;55.826;37.046;2022-12-24T15:39:37;5.72;;;3.67;;
70320;SDS011;61127;55.826;37.046;2022-12-24T15:42:04;6.93;;;4.03;;
70320;SDS011;61127;55.826;37.046;2022-12-24T15:44:43;6.72;;;3.83;;
70320;SDS011;61127;55.826;37.046;2022-12-24T15:47:18;6.47;;;3.70;;
70320;SDS011;61127;55.826;37.046;2022-12-24T15:49:46;8.18;;;4.00;;
70320;SDS011;61127;55.826;37.046;2022-12-24T15:52:13;6.90;;;3.90;;
70320;SDS011;61127;55.826;37.046;2022-12-24T15:54:43;8.53;;;5.00;;
70320;SDS011;61127;55.826;37.046;2022-12-24T15:59:52;8.35;;;4.45;;
70320;SDS011;61127;55.826;37.046;2022-12-24T16:13:43;8.63;;;4.05;;
70320;SDS011;61127;55.826;37.046;2022-12-24T16:16:29;7.53;;;3.70;;
70320;SDS011;61127;55.826;37.046;2022-12-24T16:18:58;7.30;;;3.17;;
70320;SDS011;61127;55.826;37.046;2022-12-24T16:21:29;5.60;;;3.00;;
70320;SDS011;61127;55.826;37.046;2022-12-24T16:24:01;5.63;;;3.17;;
70320;SDS011;61127;55.826;37.046;2022-12-24T16:26:34;8.25;;;3.10;;
70320;SDS011;61127;55.826;37.046;2022-12-24T16:29:00;6.38;;;3.08;;
70320;SDS011;61127;55.826;37.046;2022-12-24T16:31:32;6.70;;;3.55;;
70320;SDS011;61127;55.826;37.046;2022-12-24T16:33:59;5.30;;;3.20;;
70320;SDS011;61127;55.826;37.046;2022-12-24T16:36:27;5.32;;;3.08;;
70320;SDS011;61127;55.826;37.046;2022-12-24T16:38:53;5.40;;;3.08;;
70320;SDS011;61127;55.826;37.046;2022-12-24T16:41:39;6.00;;;3.20;;
70320;SDS011;61127;55.826;37.046;2022-12-24T16:44:24;6.93;;;3.60;;
70320;SDS011;61127;55.826;37.046;2022-12-24T16:46:51;5.70;;;3.27;;
70320;SDS011;61127;55.826;37.046;2022-12-24T16:49:19;6.18;;;3.30;;
70320;SDS011;61127;55.826;37.046;2022-12-24T16:51:45;7.22;;;3.92;;